createdAt,value
2022-11-03T00:00:57.522Z,1.00
2022-11-03T00:02:29.732Z,1.00
2022-11-03T00:04:02.401Z,1.00
2022-11-03T00:05:52.918Z,1.00
2022-11-03T00:07:25.090Z,1.00
2022-11-03T00:09:02.646Z,1.00
2022-11-03T00:10:35.087Z,1.00
2022-11-03T00:12:08.317Z,1.00
2022-11-03T00:13:44.756Z,96.20
2022-11-03T00:15:17.193Z,99.90
2022-11-03T00:16:49.543Z,17.30
2022-11-03T00:18:21.674Z,99.90
2022-11-03T00:19:53.807Z,99.90
2022-11-03T00:21:26.485Z,99.90
2022-11-03T00:22:58.762Z,99.90
2022-11-03T00:24:30.886Z,99.90
2022-11-03T00:26:10.308Z,99.90
2022-11-03T00:27:42.932Z,1.00
2022-11-03T00:29:15.637Z,1.00
2022-11-03T00:30:47.801Z,99.90
2022-11-03T00:32:20.221Z,99.90
2022-11-03T00:33:53.813Z,1.00
2022-11-03T00:35:25.990Z,99.90
2022-11-03T00:36:58.459Z,99.90
2022-11-03T00:38:32.449Z,99.90
2022-11-03T00:40:05.168Z,99.90
2022-11-03T00:41:37.825Z,99.90
2022-11-03T00:43:10.409Z,99.90
2022-11-03T00:44:42.517Z,99.90
2022-11-03T00:46:14.805Z,1.00
2022-11-03T00:48:05.415Z,99.90
2022-11-03T00:49:37.896Z,1.00
2022-11-03T00:51:25.429Z,1.00
2022-11-03T00:52:57.602Z,1.00
2022-11-03T00:54:29.732Z,1.00
2022-11-03T00:56:02.736Z,1.00
2022-11-03T00:57:35.029Z,1.00
2022-11-03T00:59:10.022Z,1.00
2022-11-03T01:00:42.280Z,1.00
2022-11-03T01:02:14.873Z,1.00
2022-11-03T01:04:10.470Z,1.00
2022-11-03T01:06:03.347Z,1.00
2022-11-03T01:07:35.807Z,1.00
2022-11-03T01:09:08.115Z,14.90
2022-11-03T01:11:00.414Z,53.00
2022-11-03T01:12:32.868Z,87.90
2022-11-03T01:14:05.935Z,93.20
2022-11-03T01:15:38.152Z,99.90
2022-11-03T01:17:17.632Z,99.90
2022-11-03T01:18:51.162Z,99.90
2022-11-03T01:20:23.529Z,99.90
2022-11-03T01:21:55.802Z,99.90
2022-11-03T01:23:27.997Z,99.90
2022-11-03T01:25:00.454Z,99.90
2022-11-03T01:26:32.968Z,99.90
2022-11-03T01:29:43.441Z,99.90
2022-11-03T01:31:21.229Z,99.90
2022-11-03T01:32:53.386Z,99.90
2022-11-03T01:34:25.885Z,99.90
2022-11-03T01:36:05.863Z,99.90
2022-11-03T01:37:38.161Z,99.90
2022-11-03T01:39:18.261Z,99.90
2022-11-03T01:40:50.841Z,99.90
2022-11-03T01:42:22.983Z,99.90
2022-11-03T01:44:07.282Z,99.90
2022-11-03T01:45:39.637Z,99.90
2022-11-03T01:47:26.456Z,99.90
2022-11-03T01:49:10.703Z,99.90
2022-11-03T01:50:47.377Z,99.90
2022-11-03T01:52:37.234Z,99.90
2022-11-03T01:54:19.280Z,99.90
2022-11-03T01:55:52.070Z,99.90
2022-11-03T01:57:36.267Z,99.90
2022-11-03T01:59:09.957Z,99.90
2022-11-03T02:00:47.255Z,99.90
2022-11-03T02:02:19.909Z,99.90
2022-11-03T02:04:01.287Z,99.90
2022-11-03T02:05:33.705Z,99.90
2022-11-03T02:07:39.357Z,99.90
2022-11-03T02:09:12.448Z,99.90
2022-11-03T02:10:49.065Z,99.90
2022-11-03T02:12:23.395Z,99.90
2022-11-03T02:13:56.035Z,99.90
2022-11-03T02:15:30.884Z,99.90
2022-11-03T02:17:09.344Z,99.90
2022-11-03T02:18:44.410Z,99.90
2022-11-03T02:20:28.198Z,99.90
2022-11-03T02:22:44.314Z,99.90
2022-11-03T02:24:54.339Z,99.90
2022-11-03T02:26:27.853Z,99.90
2022-11-03T02:28:00.889Z,99.90
2022-11-03T02:29:33.243Z,99.90
2022-11-03T02:31:25.927Z,99.90
2022-11-03T02:33:11.974Z,99.90
2022-11-03T02:35:05.162Z,99.90
2022-11-03T02:37:24.688Z,99.90
2022-11-03T02:39:09.798Z,99.90
2022-11-03T02:40:58.766Z,99.90
2022-11-03T02:42:31.825Z,99.90
2022-11-03T02:44:11.774Z,99.90
2022-11-03T02:45:48.268Z,99.90
2022-11-03T02:47:23.741Z,99.90
2022-11-03T02:48:57.362Z,99.90
2022-11-03T02:50:33.974Z,99.90
2022-11-03T02:52:27.261Z,99.90
2022-11-03T02:54:14.265Z,99.90
2022-11-03T02:56:13.965Z,99.90
2022-11-03T02:58:31.434Z,99.90
2022-11-03T03:00:07.859Z,99.90
2022-11-03T03:01:50.927Z,99.90
2022-11-03T03:03:40.706Z,99.90
2022-11-03T03:05:17.387Z,99.90
2022-11-03T03:06:58.591Z,99.90
2022-11-03T03:08:32.909Z,99.90
2022-11-03T03:10:20.101Z,99.90
2022-11-03T03:11:56.524Z,99.90
2022-11-03T03:13:28.862Z,99.90
2022-11-03T03:15:05.946Z,99.90
2022-11-03T03:17:01.317Z,99.90
2022-11-03T03:19:04.686Z,99.90
2022-11-03T03:20:53.452Z,99.90
2022-11-03T03:22:37.138Z,99.90
2022-11-03T03:24:44.177Z,99.90
2022-11-03T03:26:33.237Z,99.90
2022-11-03T03:28:26.833Z,99.90
2022-11-03T03:30:08.152Z,99.90
2022-11-03T03:31:47.506Z,99.90
2022-11-03T03:33:21.180Z,99.90
2022-11-03T03:34:56.098Z,99.90
2022-11-03T03:36:30.536Z,99.90
2022-11-03T03:38:12.199Z,99.90
2022-11-03T03:39:51.690Z,99.90
2022-11-03T03:41:28.590Z,99.90
2022-11-03T03:43:04.987Z,99.90
2022-11-03T03:44:41.479Z,99.90
2022-11-03T03:46:17.166Z,99.90
2022-11-03T03:47:51.564Z,99.90
2022-11-03T03:49:27.686Z,99.90
2022-11-03T03:51:02.598Z,99.90
2022-11-03T03:52:36.204Z,99.90
2022-11-03T03:54:08.513Z,99.90
2022-11-03T03:55:45.313Z,99.90
2022-11-03T03:57:22.304Z,99.90
2022-11-03T03:58:54.622Z,99.90
2022-11-03T04:00:26.783Z,99.90
2022-11-03T04:01:59.560Z,99.90
2022-11-03T04:03:32.229Z,99.90
2022-11-03T04:05:04.985Z,99.90
2022-11-03T04:06:37.202Z,99.90
2022-11-03T04:08:10.570Z,99.90
2022-11-03T04:09:43.093Z,99.90
2022-11-03T04:11:33.818Z,99.90
2022-11-03T04:13:25.521Z,99.90
2022-11-03T04:15:16.670Z,99.90
2022-11-03T04:17:07.064Z,99.90
2022-11-03T04:18:57.455Z,99.90
2022-11-03T04:20:48.448Z,99.90
2022-11-03T04:22:22.257Z,99.90
2022-11-03T04:23:54.429Z,99.90
2022-11-03T04:25:26.622Z,99.90
2022-11-03T04:27:28.341Z,99.90
2022-11-03T04:29:01.677Z,99.90
2022-11-03T04:30:33.813Z,99.90
2022-11-03T04:32:18.049Z,99.90
2022-11-03T04:33:51.148Z,99.90
2022-11-03T04:35:27.313Z,99.90
2022-11-03T04:36:59.792Z,99.90
2022-11-03T04:38:32.336Z,99.90
2022-11-03T04:40:16.478Z,99.90
2022-11-03T04:41:48.825Z,99.90
2022-11-03T04:43:34.298Z,99.90
2022-11-03T04:45:34.271Z,99.90
2022-11-03T04:47:12.447Z,99.90
2022-11-03T04:48:47.373Z,99.90
2022-11-03T04:50:23.834Z,99.90
2022-11-03T04:51:55.986Z,99.90
2022-11-03T04:53:33.219Z,99.90
2022-11-03T04:55:13.850Z,99.90
2022-11-03T04:56:46.289Z,99.90
2022-11-03T04:58:32.181Z,99.90
2022-11-03T05:00:05.253Z,99.90
2022-11-03T05:01:37.943Z,99.90
2022-11-03T05:03:23.519Z,99.90
2022-11-03T05:04:56.047Z,99.90
2022-11-03T05:06:30.449Z,99.90
2022-11-03T05:08:02.913Z,99.90
2022-11-03T05:09:38.974Z,99.90
2022-11-03T05:11:40.149Z,99.90
2022-11-03T05:13:32.894Z,99.90
2022-11-03T05:15:25.690Z,99.90
2022-11-03T05:17:00.126Z,99.90
2022-11-03T05:18:39.583Z,99.90
2022-11-03T05:20:51.005Z,99.90
2022-11-03T05:22:28.754Z,99.90
2022-11-03T05:24:11.527Z,99.90
2022-11-03T05:25:53.667Z,99.90
2022-11-03T05:27:26.306Z,99.90
2022-11-03T05:29:13.353Z,99.90
2022-11-03T05:30:46.568Z,99.90
2022-11-03T05:32:30.165Z,99.90
2022-11-03T05:34:32.769Z,99.90
2022-11-03T05:36:16.502Z,99.90
2022-11-03T05:37:51.324Z,99.90
2022-11-03T05:39:45.020Z,99.90
2022-11-03T05:41:25.057Z,99.90
2022-11-03T05:43:01.261Z,99.90
2022-11-03T05:44:40.670Z,99.90
2022-11-03T05:46:14.944Z,99.90
2022-11-03T05:47:49.371Z,99.90
2022-11-03T05:49:21.649Z,99.90
2022-11-03T05:50:56.101Z,99.90
2022-11-03T05:52:29.338Z,99.90
2022-11-03T05:54:07.053Z,99.90
2022-11-03T05:55:40.940Z,99.90
2022-11-03T05:57:18.222Z,99.90
2022-11-03T05:58:53.500Z,99.90
2022-11-03T06:00:31.786Z,99.90
2022-11-03T06:02:26.535Z,99.90
2022-11-03T06:04:14.416Z,99.90
2022-11-03T06:05:47.402Z,99.90
2022-11-03T06:07:27.675Z,99.90
2022-11-03T06:09:16.015Z,99.90
2022-11-03T06:10:58.337Z,99.90
2022-11-03T06:12:31.162Z,99.90
2022-11-03T06:14:19.984Z,99.90
2022-11-03T06:16:06.937Z,99.90
2022-11-03T06:17:39.462Z,99.90
2022-11-03T06:19:48.048Z,99.90
2022-11-03T06:21:25.524Z,99.90
2022-11-03T06:22:58.143Z,99.90
2022-11-03T06:24:34.061Z,99.90
2022-11-03T06:26:28.656Z,99.90
2022-11-03T06:28:15.014Z,99.90
2022-11-03T06:29:58.854Z,99.90
2022-11-03T06:31:34.367Z,99.90
2022-11-03T06:33:33.791Z,99.90
2022-11-03T06:35:13.146Z,99.90
2022-11-03T06:36:45.473Z,99.90
2022-11-03T06:38:29.791Z,99.90
2022-11-03T06:40:10.742Z,99.90
2022-11-03T06:41:42.902Z,99.90
2022-11-03T06:43:20.572Z,99.90
2022-11-03T06:44:52.967Z,99.90
2022-11-03T06:46:26.916Z,99.90
2022-11-03T06:48:00.729Z,99.90
2022-11-03T06:49:36.002Z,99.90
2022-11-03T06:51:20.995Z,99.90
2022-11-03T06:52:54.651Z,99.90
2022-11-03T06:54:26.867Z,99.90
2022-11-03T06:56:00.005Z,99.90
2022-11-03T06:57:44.295Z,99.90
2022-11-03T06:59:19.290Z,99.90
2022-11-03T07:00:52.230Z,99.90
2022-11-03T07:02:56.070Z,99.90
2022-11-03T07:04:28.736Z,99.90
2022-11-03T07:06:09.961Z,99.90
2022-11-03T07:07:42.121Z,99.90
2022-11-03T07:09:28.269Z,99.90
2022-11-03T07:11:17.229Z,99.90
2022-11-03T07:12:49.462Z,99.90
2022-11-03T07:14:27.366Z,99.90
2022-11-03T07:16:00.550Z,99.90
2022-11-03T07:17:34.548Z,99.90
2022-11-03T07:19:29.562Z,99.90
2022-11-03T07:21:25.973Z,99.90
2022-11-03T07:23:02.178Z,99.90
2022-11-03T07:24:41.231Z,99.90
2022-11-03T07:26:14.002Z,99.90
2022-11-03T07:27:52.517Z,99.90
2022-11-03T07:29:29.541Z,99.90
2022-11-03T07:31:16.612Z,99.90
2022-11-03T07:33:00.739Z,99.90
2022-11-03T07:34:34.119Z,99.90
2022-11-03T07:36:15.791Z,99.90
2022-11-03T07:37:52.529Z,99.90
2022-11-03T07:39:34.454Z,99.90
2022-11-03T07:41:16.538Z,99.90
2022-11-03T07:42:49.085Z,99.90
2022-11-03T07:44:22.146Z,99.90
2022-11-03T07:46:01.741Z,99.90
2022-11-03T07:47:34.009Z,99.90
2022-11-03T07:49:20.174Z,99.90
2022-11-03T07:50:57.371Z,99.90
2022-11-03T07:52:29.529Z,99.90
2022-11-03T07:54:23.625Z,99.90
2022-11-03T07:55:56.658Z,99.90
2022-11-03T07:57:31.212Z,99.90
2022-11-03T07:59:09.844Z,99.90
2022-11-03T08:00:41.991Z,99.90
2022-11-03T08:02:31.816Z,99.90
2022-11-03T08:04:23.611Z,99.90
2022-11-03T08:05:55.870Z,99.90
2022-11-03T08:07:30.356Z,99.90
2022-11-03T08:09:03.014Z,99.90
2022-11-03T08:10:35.171Z,99.90
2022-11-03T08:12:07.809Z,99.90
2022-11-03T08:13:40.191Z,99.90
2022-11-03T08:15:12.351Z,99.90
2022-11-03T08:16:45.011Z,99.90
2022-11-03T08:18:17.213Z,99.90
2022-11-03T08:19:49.521Z,99.90
2022-11-03T08:21:21.868Z,99.90
2022-11-03T08:23:24.210Z,99.90
2022-11-03T08:24:46.704Z,99.90
2022-11-03T08:26:19.049Z,99.90
2022-11-03T08:27:51.484Z,99.90
2022-11-03T08:29:27.253Z,99.90
2022-11-03T08:31:08.001Z,99.90
2022-11-03T08:32:44.582Z,99.90
2022-11-03T08:34:17.104Z,99.90
2022-11-03T08:35:49.258Z,99.90
2022-11-03T08:37:21.441Z,99.90
2022-11-03T08:38:53.927Z,99.90
2022-11-03T08:40:26.096Z,99.90
2022-11-03T08:41:58.297Z,99.90
2022-11-03T08:43:30.968Z,99.90
2022-11-03T08:45:03.811Z,99.90
2022-11-03T08:46:36.398Z,99.90
2022-11-03T08:48:09.462Z,99.90
2022-11-03T08:49:42.054Z,99.90
2022-11-03T08:51:16.129Z,99.90
2022-11-03T08:52:49.740Z,99.90
2022-11-03T08:54:22.160Z,99.90
2022-11-03T08:55:55.251Z,99.90
2022-11-03T08:57:27.739Z,99.90
2022-11-03T08:58:59.950Z,99.90
2022-11-03T09:00:33.322Z,99.90
2022-11-03T09:02:08.345Z,99.90
2022-11-03T09:03:42.047Z,99.90
2022-11-03T09:05:14.747Z,99.90
2022-11-03T09:06:46.935Z,99.90
2022-11-03T09:10:20.426Z,99.90
2022-11-03T09:11:54.544Z,99.90
2022-11-03T09:13:27.014Z,99.90
2022-11-03T09:14:59.348Z,99.90
2022-11-03T09:16:32.763Z,99.90
2022-11-03T09:18:05.208Z,99.90
2022-11-03T09:19:37.702Z,99.90
2022-11-03T09:21:09.854Z,99.90
2022-11-03T09:22:42.310Z,99.90
2022-11-03T09:24:14.556Z,99.90
2022-11-03T09:25:46.664Z,99.90
2022-11-03T09:27:18.941Z,99.90
2022-11-03T09:28:51.438Z,99.90
2022-11-03T09:30:23.582Z,99.90
2022-11-03T09:31:55.751Z,99.90
2022-11-03T09:33:36.168Z,99.90
2022-11-03T09:35:14.738Z,99.90
2022-11-03T09:36:52.123Z,99.90
2022-11-03T09:38:25.699Z,99.90
2022-11-03T09:39:58.749Z,99.90
2022-11-03T09:41:53.837Z,99.90
2022-11-03T09:43:24.835Z,99.90
2022-11-03T09:44:57.250Z,99.90
2022-11-03T09:46:31.053Z,99.90
2022-11-03T09:48:03.336Z,99.90
2022-11-03T09:49:37.005Z,99.90
2022-11-03T09:51:20.918Z,99.90
2022-11-03T09:52:55.248Z,99.90
2022-11-03T09:54:29.894Z,99.90
2022-11-03T09:56:02.317Z,99.90
2022-11-03T09:57:34.514Z,99.90
2022-11-03T09:59:23.861Z,99.90
2022-11-03T10:00:56.381Z,99.90
2022-11-03T10:02:32.603Z,99.90
2022-11-03T10:04:05.253Z,99.90
2022-11-03T10:05:39.555Z,99.90
2022-11-03T10:07:12.080Z,99.90
2022-11-03T10:08:47.466Z,99.90
2022-11-03T10:10:22.042Z,99.90
2022-11-03T10:11:55.478Z,99.90
2022-11-03T10:13:35.531Z,99.90
2022-11-03T10:15:16.670Z,99.90
2022-11-03T10:17:00.420Z,99.90
2022-11-03T10:18:35.669Z,99.90
2022-11-03T10:20:13.316Z,99.90
2022-11-03T10:21:46.216Z,99.90
2022-11-03T10:23:19.093Z,99.90
2022-11-03T10:25:36.183Z,99.90
2022-11-03T10:27:25.390Z,99.90
2022-11-03T10:28:59.958Z,99.90
2022-11-03T10:30:36.206Z,99.90
2022-11-03T10:32:31.293Z,99.90
2022-11-03T10:34:05.813Z,99.90
2022-11-03T10:35:37.951Z,99.90
2022-11-03T10:37:23.465Z,99.90
2022-11-03T10:38:57.298Z,99.90
2022-11-03T10:40:52.505Z,99.90
2022-11-03T10:42:35.319Z,99.90
2022-11-03T10:44:20.312Z,99.90
2022-11-03T10:46:49.539Z,99.90
2022-11-03T10:48:13.404Z,99.90
2022-11-03T10:49:46.049Z,99.90
2022-11-03T10:51:18.687Z,99.90
2022-11-03T10:52:52.097Z,99.90
2022-11-03T10:54:25.278Z,99.90
2022-11-03T10:55:57.920Z,99.90
2022-11-03T10:57:32.065Z,99.70
2022-11-03T10:59:04.905Z,99.90
2022-11-03T11:00:40.080Z,99.30
2022-11-03T11:02:24.473Z,98.80
2022-11-03T11:03:57.919Z,99.60
2022-11-03T11:05:30.388Z,97.30
2022-11-03T11:07:03.338Z,97.90
2022-11-03T11:08:38.035Z,98.80
2022-11-03T11:10:22.529Z,97.40
2022-11-03T11:12:19.787Z,97.50
2022-11-03T11:14:25.847Z,96.90
2022-11-03T11:16:02.788Z,95.60
2022-11-03T11:17:37.735Z,95.50
2022-11-03T11:19:11.645Z,94.60
2022-11-03T11:20:44.002Z,94.60
2022-11-03T11:22:24.181Z,93.80
2022-11-03T11:23:56.421Z,92.30
2022-11-03T11:26:10.064Z,92.20
2022-11-03T11:27:42.427Z,91.90
2022-11-03T11:29:15.713Z,92.20
2022-11-03T11:30:58.002Z,92.70
2022-11-03T11:32:42.549Z,92.00
2022-11-03T11:34:18.289Z,90.60
2022-11-03T11:35:54.042Z,87.90
2022-11-03T11:37:30.045Z,88.00
2022-11-03T11:39:04.557Z,88.20
2022-11-03T11:40:36.703Z,87.20
2022-11-03T11:42:21.399Z,86.80
2022-11-03T11:43:53.686Z,86.90
2022-11-03T11:46:22.534Z,87.60
2022-11-03T11:47:55.398Z,81.80
2022-11-03T11:49:28.162Z,82.20
2022-11-03T11:51:02.800Z,83.60
2022-11-03T11:52:44.750Z,84.80
2022-11-03T11:54:21.369Z,84.40
2022-11-03T11:55:58.105Z,81.60
2022-11-03T11:57:35.225Z,77.10
2022-11-03T11:59:25.689Z,78.70
2022-11-03T12:01:03.261Z,79.00
2022-11-03T12:02:36.502Z,80.30
2022-11-03T12:04:24.124Z,82.20
2022-11-03T12:05:56.337Z,82.50
2022-11-03T12:07:37.074Z,83.60
2022-11-03T12:09:17.774Z,84.90
2022-11-03T12:11:09.473Z,84.40
2022-11-03T12:12:42.174Z,85.10
2022-11-03T12:14:28.863Z,85.50
2022-11-03T12:16:01.551Z,84.00
2022-11-03T12:17:34.132Z,85.20
2022-11-03T12:19:46.756Z,85.70
2022-11-03T12:21:47.215Z,85.00
2022-11-03T12:23:43.657Z,85.30
2022-11-03T12:25:37.347Z,84.20
2022-11-03T12:27:24.887Z,83.80
2022-11-03T12:28:57.505Z,82.00
2022-11-03T12:30:30.049Z,82.60
2022-11-03T12:32:02.281Z,82.90
2022-11-03T12:33:35.075Z,81.60
2022-11-03T12:35:09.709Z,82.60
2022-11-03T12:36:46.287Z,83.50
2022-11-03T12:38:18.581Z,83.30
2022-11-03T12:39:50.765Z,82.10
2022-11-03T12:41:24.659Z,80.80
2022-11-03T12:42:57.153Z,80.80
2022-11-03T12:44:29.510Z,80.50
2022-11-03T12:46:01.960Z,80.70
2022-11-03T12:47:34.417Z,81.20
2022-11-03T12:49:07.084Z,81.70
2022-11-03T12:50:40.708Z,81.50
2022-11-03T12:52:13.087Z,82.60
2022-11-03T12:53:46.044Z,82.60
2022-11-03T12:55:18.821Z,82.90
2022-11-03T12:56:53.255Z,82.90
2022-11-03T12:58:25.447Z,82.80
2022-11-03T12:59:57.965Z,81.90
2022-11-03T13:01:30.566Z,80.50
2022-11-03T13:03:28.344Z,80.50
2022-11-03T13:05:01.289Z,80.40
2022-11-03T13:06:33.726Z,81.40
2022-11-03T13:08:06.269Z,80.50
2022-11-03T13:09:39.942Z,81.30
2022-11-03T13:11:31.208Z,81.90
2022-11-03T13:13:03.973Z,81.10
2022-11-03T13:14:37.167Z,81.60
2022-11-03T13:16:09.593Z,81.70
2022-11-03T13:19:35.779Z,82.60
2022-11-03T13:21:08.639Z,81.90
2022-11-03T13:22:41.110Z,80.60
2022-11-03T13:24:13.570Z,80.20
2022-11-03T13:25:46.687Z,80.10
2022-11-03T13:27:19.280Z,79.30
2022-11-03T13:28:51.443Z,79.90
2022-11-03T13:30:26.599Z,80.20
2022-11-03T13:31:58.736Z,80.80
2022-11-03T13:33:30.937Z,80.70
2022-11-03T13:35:08.142Z,80.30
2022-11-03T13:36:43.819Z,80.10
2022-11-03T13:38:16.399Z,79.80
2022-11-03T13:39:48.645Z,79.40
2022-11-03T13:41:20.929Z,79.40
2022-11-03T13:42:53.545Z,79.10
2022-11-03T13:44:25.853Z,80.10
2022-11-03T13:46:02.240Z,80.00
2022-11-03T13:48:15.546Z,79.90
2022-11-03T13:51:21.616Z,79.70
2022-11-03T13:52:53.977Z,78.60
2022-11-03T13:56:21.906Z,78.50
2022-11-03T13:59:47.362Z,79.20
2022-11-03T14:01:20.096Z,78.80
2022-11-03T14:04:45.392Z,78.90
2022-11-03T14:06:18.099Z,79.40
2022-11-03T14:07:50.801Z,80.40
2022-11-03T14:09:23.710Z,80.50
2022-11-03T14:10:56.515Z,80.50
2022-11-03T14:12:31.540Z,81.10
2022-11-03T14:14:04.033Z,81.00
2022-11-03T14:15:36.818Z,81.30
2022-11-03T14:17:09.766Z,81.60
2022-11-03T14:18:42.262Z,82.10
2022-11-03T14:20:14.568Z,82.10
2022-11-03T14:21:47.098Z,82.90
2022-11-03T14:23:19.728Z,83.60
2022-11-03T14:24:53.039Z,84.20
2022-11-03T14:26:41.238Z,84.60
2022-11-03T14:28:22.793Z,85.20
2022-11-03T14:29:57.966Z,85.60
2022-11-03T14:31:30.560Z,86.00
2022-11-03T14:33:03.095Z,86.60
2022-11-03T14:34:35.704Z,86.60
2022-11-03T14:36:08.039Z,86.90
2022-11-03T14:37:40.411Z,87.40
2022-11-03T14:39:13.080Z,88.00
2022-11-03T14:41:03.846Z,87.80
2022-11-03T14:42:36.102Z,88.40
2022-11-03T14:44:08.282Z,89.30
2022-11-03T14:45:42.592Z,89.80
2022-11-03T14:47:21.876Z,90.10
2022-11-03T14:48:54.638Z,90.30
2022-11-03T14:50:26.829Z,90.60
2022-11-03T14:52:02.068Z,91.00
2022-11-03T14:53:34.479Z,91.30
2022-11-03T14:55:07.576Z,91.70
2022-11-03T14:56:40.345Z,91.90
2022-11-03T14:58:12.700Z,92.20
2022-11-03T14:59:46.868Z,92.50
2022-11-03T15:01:23.295Z,92.90
2022-11-03T15:02:55.701Z,93.30
2022-11-03T15:04:28.294Z,93.60
2022-11-03T15:06:00.697Z,94.00
2022-11-03T15:07:33.255Z,94.30
2022-11-03T15:10:44.540Z,95.00
2022-11-03T15:12:16.886Z,95.40
2022-11-03T15:13:52.314Z,95.80
2022-11-03T15:15:25.371Z,96.40
2022-11-03T15:16:57.806Z,96.90
2022-11-03T15:18:30.260Z,97.20
2022-11-03T15:20:03.239Z,97.40
2022-11-03T15:21:35.545Z,98.10
2022-11-03T15:25:18.741Z,98.90
2022-11-03T15:26:53.157Z,99.70
2022-11-03T15:28:25.319Z,99.80
2022-11-03T15:29:57.725Z,99.90
2022-11-03T15:31:30.007Z,99.90
2022-11-03T15:33:02.248Z,99.90
2022-11-03T15:34:34.873Z,99.90
2022-11-03T15:36:08.373Z,99.90
2022-11-03T15:37:49.721Z,99.90
2022-11-03T15:39:22.256Z,99.90
2022-11-03T15:41:14.382Z,99.90
2022-11-03T15:42:47.347Z,99.90
2022-11-03T15:44:19.783Z,99.90
2022-11-03T15:45:52.029Z,99.90
2022-11-03T15:47:24.617Z,99.90
2022-11-03T15:48:57.812Z,99.90
2022-11-03T15:50:31.087Z,99.90
2022-11-03T15:52:03.765Z,99.90
2022-11-03T15:53:36.851Z,99.90
2022-11-03T15:55:10.455Z,99.90
2022-11-03T15:56:43.025Z,99.90
2022-11-03T15:58:15.155Z,99.90
2022-11-03T15:59:47.530Z,99.90
2022-11-03T16:01:20.551Z,99.90
2022-11-03T16:02:53.077Z,99.90
2022-11-03T16:04:25.352Z,99.90
2022-11-03T16:05:57.543Z,99.90
2022-11-03T16:07:30.799Z,99.90
2022-11-03T16:09:03.910Z,99.90
2022-11-03T16:10:36.128Z,99.90
2022-11-03T16:12:12.404Z,99.90
2022-11-03T16:13:44.916Z,99.90
2022-11-03T16:15:17.376Z,99.90
2022-11-03T16:16:49.601Z,99.90
2022-11-03T16:18:22.257Z,99.90
2022-11-03T16:19:55.243Z,99.90
2022-11-03T16:21:28.923Z,99.90
2022-11-03T16:23:02.179Z,99.90
2022-11-03T16:24:35.405Z,99.90
2022-11-03T16:26:09.035Z,99.90
2022-11-03T16:27:41.344Z,99.90
2022-11-03T16:29:13.810Z,99.90
2022-11-03T16:30:51.273Z,99.90
2022-11-03T16:32:26.677Z,99.90
2022-11-03T16:33:59.224Z,99.90
2022-11-03T16:35:31.576Z,99.90
2022-11-03T16:37:04.075Z,99.90
2022-11-03T16:38:36.227Z,99.90
2022-11-03T16:40:13.671Z,99.90
2022-11-03T16:41:54.664Z,99.90
2022-11-03T16:43:26.882Z,99.90
2022-11-03T16:44:59.859Z,99.90
2022-11-03T16:46:32.103Z,99.90
2022-11-03T16:48:06.152Z,99.90
2022-11-03T16:49:41.712Z,99.90
2022-11-03T16:51:13.982Z,99.90
2022-11-03T16:52:48.068Z,99.90
2022-11-03T16:54:20.651Z,99.90
2022-11-03T16:55:53.054Z,99.90
2022-11-03T16:57:25.257Z,99.90
2022-11-03T16:58:57.504Z,99.90
2022-11-03T17:00:30.189Z,99.90
2022-11-03T17:02:02.748Z,99.90
2022-11-03T17:03:35.331Z,99.90
2022-11-03T17:05:09.191Z,99.90
2022-11-03T17:06:41.740Z,99.90
2022-11-03T17:08:38.999Z,99.90
2022-11-03T17:10:08.126Z,99.90
2022-11-03T17:11:41.078Z,99.90
2022-11-03T17:13:13.589Z,99.90
2022-11-03T17:14:45.864Z,99.90
2022-11-03T17:16:17.980Z,99.90
2022-11-03T17:17:51.557Z,99.90
2022-11-03T17:19:23.770Z,99.90
2022-11-03T17:20:56.214Z,99.90
2022-11-03T17:22:28.870Z,99.90
2022-11-03T17:24:01.597Z,99.90
2022-11-03T17:25:35.175Z,99.90
2022-11-03T17:27:21.666Z,99.90
2022-11-03T17:28:54.940Z,99.90
2022-11-03T17:30:34.125Z,99.90
2022-11-03T17:32:13.732Z,99.90
2022-11-03T17:33:46.258Z,99.90
2022-11-03T17:35:39.720Z,99.90
2022-11-03T17:37:12.810Z,99.90
2022-11-03T17:38:45.121Z,99.90
2022-11-03T17:40:25.261Z,99.90
2022-11-03T17:42:16.145Z,99.90
2022-11-03T17:43:48.892Z,99.90
2022-11-03T17:45:24.148Z,99.90
2022-11-03T17:46:56.468Z,99.90
2022-11-03T17:48:29.161Z,99.90
2022-11-03T17:50:01.330Z,99.90
2022-11-03T17:51:40.418Z,99.90
2022-11-03T17:53:33.105Z,99.90
2022-11-03T17:55:20.426Z,99.90
2022-11-03T17:56:53.013Z,99.90
2022-11-03T17:58:33.542Z,99.90
2022-11-03T18:00:07.537Z,99.90
2022-11-03T18:01:39.990Z,99.90
2022-11-03T18:03:14.994Z,99.90
2022-11-03T18:04:48.236Z,99.90
2022-11-03T18:06:22.041Z,99.90
2022-11-03T18:07:55.312Z,99.90
2022-11-03T18:09:27.789Z,99.90
2022-11-03T18:11:00.756Z,99.90
2022-11-03T18:12:58.606Z,99.90
2022-11-03T18:14:31.601Z,99.90
2022-11-03T18:16:10.780Z,99.90
2022-11-03T18:17:43.724Z,99.90
2022-11-03T18:19:18.295Z,99.90
2022-11-03T18:20:53.903Z,99.90
2022-11-03T18:22:26.546Z,99.90
2022-11-03T18:23:59.092Z,99.90
2022-11-03T18:25:31.323Z,99.90
2022-11-03T18:27:11.195Z,99.90
2022-11-03T18:28:44.319Z,99.90
2022-11-03T18:30:17.381Z,99.90
2022-11-03T18:31:50.755Z,99.90
2022-11-03T18:33:34.435Z,99.90
2022-11-03T18:35:22.611Z,99.90
2022-11-03T18:36:55.403Z,99.90
2022-11-03T18:38:32.748Z,99.90
2022-11-03T18:40:05.631Z,99.90
2022-11-03T18:41:40.522Z,99.90
2022-11-03T18:43:17.061Z,99.90
2022-11-03T18:44:50.008Z,99.90
2022-11-03T18:46:22.462Z,99.90
2022-11-03T18:47:54.861Z,99.90
2022-11-03T18:49:27.698Z,99.90
2022-11-03T18:51:00.507Z,99.90
2022-11-03T18:52:40.534Z,99.90
2022-11-03T18:54:16.540Z,99.90
2022-11-03T18:55:49.902Z,99.90
2022-11-03T18:57:27.465Z,99.90
2022-11-03T18:59:00.326Z,99.90
2022-11-03T19:00:32.736Z,99.90
2022-11-03T19:02:21.522Z,99.90
2022-11-03T19:03:56.297Z,99.90
2022-11-03T19:05:29.750Z,99.90
2022-11-03T19:07:03.748Z,99.90
2022-11-03T19:08:36.997Z,99.90
2022-11-03T19:10:19.642Z,99.90
2022-11-03T19:11:56.149Z,99.90
2022-11-03T19:13:35.669Z,99.90
2022-11-03T19:15:17.809Z,99.90
2022-11-03T19:17:21.274Z,99.90
2022-11-03T19:18:46.434Z,99.90
2022-11-03T19:20:19.419Z,99.90
2022-11-03T19:21:53.134Z,99.90
2022-11-03T19:23:26.125Z,99.90
2022-11-03T19:24:58.551Z,99.90
2022-11-03T19:26:39.634Z,99.90
2022-11-03T19:28:16.145Z,99.90
2022-11-03T19:29:49.364Z,99.90
2022-11-03T19:31:38.842Z,99.90
2022-11-03T19:33:22.593Z,99.90
2022-11-03T19:35:06.405Z,99.90
2022-11-03T19:36:40.434Z,99.90
2022-11-03T19:38:18.821Z,99.90
2022-11-03T19:39:51.410Z,99.90
2022-11-03T19:41:42.459Z,99.90
2022-11-03T19:43:14.901Z,99.90
2022-11-03T19:44:50.583Z,99.90
2022-11-03T19:46:22.982Z,99.90
2022-11-03T19:48:23.258Z,99.90
2022-11-03T19:49:54.155Z,99.90
2022-11-03T19:51:27.331Z,99.90
2022-11-03T19:53:02.916Z,99.90
2022-11-03T19:54:35.422Z,99.90
2022-11-03T19:56:09.526Z,99.90
2022-11-03T19:57:42.129Z,99.90
2022-11-03T19:59:16.900Z,99.90
2022-11-03T20:00:51.051Z,99.90
2022-11-03T20:02:23.996Z,99.90
2022-11-03T20:03:57.027Z,99.90
2022-11-03T20:05:29.790Z,99.90
2022-11-03T20:07:04.264Z,99.90
2022-11-03T20:08:37.914Z,99.90
2022-11-03T20:10:17.842Z,99.90
2022-11-03T20:11:52.552Z,99.90
2022-11-03T20:13:32.502Z,99.90
2022-11-03T20:15:16.418Z,99.90
2022-11-03T20:16:48.650Z,99.90
2022-11-03T20:18:21.537Z,99.90
2022-11-03T20:19:53.757Z,99.90
2022-11-03T20:21:32.974Z,99.90
2022-11-03T20:23:14.981Z,99.90
2022-11-03T20:24:48.878Z,99.90
2022-11-03T20:26:27.345Z,99.90
2022-11-03T20:28:00.242Z,99.90
2022-11-03T20:29:34.884Z,99.90
2022-11-03T20:31:07.759Z,99.90
2022-11-03T20:32:40.287Z,99.90
2022-11-03T20:34:16.518Z,99.90
2022-11-03T20:35:51.359Z,99.90
2022-11-03T20:37:24.592Z,99.90
2022-11-03T20:38:59.577Z,99.90
2022-11-03T20:40:32.553Z,99.90
2022-11-03T20:42:04.878Z,99.90
2022-11-03T20:43:45.550Z,99.90
2022-11-03T20:45:24.147Z,99.90
2022-11-03T20:46:56.486Z,99.90
2022-11-03T20:48:29.247Z,99.90
2022-11-03T20:50:01.745Z,99.90
2022-11-03T20:51:47.128Z,99.90
2022-11-03T20:53:23.468Z,99.90
2022-11-03T20:54:55.869Z,99.90
2022-11-03T20:56:29.138Z,99.90
2022-11-03T20:58:26.532Z,99.90
2022-11-03T20:59:58.998Z,99.90
2022-11-03T21:01:34.017Z,99.90
2022-11-03T21:03:37.928Z,99.90
2022-11-03T21:05:32.619Z,99.90
2022-11-03T21:07:05.527Z,99.90
2022-11-03T21:08:37.926Z,99.90
2022-11-03T21:10:12.985Z,99.90
2022-11-03T21:11:48.190Z,99.90
2022-11-03T21:13:20.820Z,99.90